Terminal Aerodrome Forecast
Issued by NWS

Home | Current Version | Previous Version | Text Only | Print | Product List | Glossary On
Versions: 1 2 3 4 5 6 7 8 9 10 11 12 13 14 15 16 17 18
000
FTUS43 KAPX 300536
TAFAPN
TAF
KAPN 300536Z 3006/3106 20004KT P6SM FEW100
     FM301400 24008KT P6SM FEW050 BKN100
     FM301800 25009KT P6SM VCSH BKN050
     FM310000 25007KT P6SM BKN050
     FM310200 23005KT P6SM BKN060=

USA.gov is the U.S. government's official web portal to all federal, state and local government web resources and services.